createdAt,value
2018-12-27T00:02:12.799Z,3.70
2018-12-27T00:04:42.627Z,3.60
2018-12-27T00:07:12.230Z,4.80
2018-12-27T00:09:41.920Z,3.80
2018-12-27T00:12:11.803Z,4.67
2018-12-27T00:14:41.329Z,4.47
2018-12-27T00:17:10.930Z,3.57
2018-12-27T00:19:40.409Z,3.83
2018-12-27T00:22:09.771Z,3.57
2018-12-27T00:24:39.341Z,2.60
2018-12-27T00:27:08.871Z,3.10
2018-12-27T00:29:38.361Z,4.93
2018-12-27T00:32:08.161Z,4.13
2018-12-27T00:34:38.020Z,4.80
2018-12-27T00:37:07.881Z,2.90
2018-12-27T00:39:37.682Z,3.90
2018-12-27T00:42:07.595Z,5.00
2018-12-27T00:44:37.677Z,6.80
2018-12-27T00:47:07.476Z,3.70
2018-12-27T00:49:37.191Z,3.57
2018-12-27T00:52:07.068Z,2.63
2018-12-27T00:54:36.855Z,3.03
2018-12-27T00:57:06.685Z,3.97
2018-12-27T00:59:36.446Z,2.60
2018-12-27T01:02:06.560Z,4.40
2018-12-27T01:04:36.327Z,4.00
2018-12-27T01:07:06.075Z,3.73
2018-12-27T01:09:35.869Z,2.30
2018-12-27T01:12:05.722Z,4.67
2018-12-27T01:14:35.563Z,3.60
2018-12-27T01:17:05.446Z,3.65
2018-12-27T01:19:35.253Z,4.47
2018-12-27T01:22:05.353Z,3.90
2018-12-27T01:24:35.590Z,3.80
2018-12-27T01:27:05.432Z,3.63
2018-12-27T01:29:35.343Z,3.15
2018-12-27T01:32:05.204Z,4.65
2018-12-27T01:34:34.891Z,3.90
2018-12-27T01:37:05.079Z,3.07
2018-12-27T01:39:34.762Z,3.13
2018-12-27T01:42:04.574Z,3.97
2018-12-27T01:44:34.308Z,5.43
2018-12-27T01:47:04.400Z,2.40
2018-12-27T01:49:34.195Z,5.22
2018-12-27T01:52:04.149Z,4.70
2018-12-27T01:54:34.290Z,2.83
2018-12-27T01:57:04.363Z,3.50
2018-12-27T01:59:34.493Z,3.52
2018-12-27T02:02:04.579Z,3.77
2018-12-27T02:04:34.718Z,4.53
2018-12-27T02:07:04.690Z,4.20
2018-12-27T02:09:34.785Z,4.57
2018-12-27T02:12:05.042Z,4.30
2018-12-27T02:14:34.936Z,4.70
2018-12-27T02:17:04.862Z,5.40
2018-12-27T02:19:35.038Z,3.63
2018-12-27T02:22:05.191Z,5.37
2018-12-27T02:24:35.200Z,5.53
2018-12-27T02:27:05.047Z,3.73
2018-12-27T02:29:35.068Z,4.63
2018-12-27T02:32:05.011Z,4.30
2018-12-27T02:34:34.998Z,5.10
2018-12-27T02:37:04.921Z,4.27
2018-12-27T02:39:34.940Z,4.50
2018-12-27T02:42:05.107Z,6.37
2018-12-27T02:44:35.359Z,5.00
2018-12-27T02:47:05.388Z,5.17
2018-12-27T02:49:35.532Z,5.60
2018-12-27T02:52:05.469Z,6.63
2018-12-27T02:54:35.602Z,5.37
2018-12-27T02:57:05.776Z,4.80
2018-12-27T02:59:35.732Z,4.53
2018-12-27T03:02:05.903Z,3.13
2018-12-27T03:04:36.004Z,4.70
2018-12-27T03:07:06.095Z,3.63
2018-12-27T03:09:36.127Z,4.30
2018-12-27T03:12:06.284Z,4.93
2018-12-27T03:14:36.283Z,5.03
2018-12-27T03:17:06.331Z,4.17
2018-12-27T03:19:36.298Z,4.30
2018-12-27T03:22:06.328Z,4.17
2018-12-27T03:24:36.389Z,5.10
2018-12-27T03:27:06.542Z,5.93
2018-12-27T03:29:36.758Z,3.80
2018-12-27T03:32:06.633Z,4.00
2018-12-27T03:34:36.842Z,4.90
2018-12-27T03:37:06.795Z,4.17
2018-12-27T03:39:37.019Z,5.40
2018-12-27T03:42:07.231Z,4.57
2018-12-27T03:44:37.875Z,4.63
2018-12-27T03:47:07.832Z,6.23
2018-12-27T03:49:37.851Z,6.70
2018-12-27T03:52:08.091Z,4.80
2018-12-27T03:54:37.929Z,4.60
2018-12-27T03:57:08.070Z,5.07
2018-12-27T03:59:38.189Z,4.30
2018-12-27T04:02:08.243Z,4.63
2018-12-27T04:04:38.280Z,4.17
2018-12-27T04:07:08.271Z,6.37
2018-12-27T04:09:38.170Z,6.00
2018-12-27T04:12:08.162Z,4.90
2018-12-27T04:14:38.171Z,5.40
2018-12-27T04:17:07.973Z,4.37
2018-12-27T04:19:37.527Z,5.43
2018-12-27T04:22:07.332Z,4.83
2018-12-27T04:24:37.057Z,5.83
2018-12-27T04:27:06.743Z,5.67
2018-12-27T04:29:36.416Z,5.80
2018-12-27T04:32:06.350Z,4.13
2018-12-27T04:34:35.904Z,5.43
2018-12-27T04:37:05.684Z,6.85
2018-12-27T04:39:35.212Z,5.03
2018-12-27T04:42:04.976Z,7.10
2018-12-27T04:44:34.827Z,6.10
2018-12-27T04:47:04.709Z,3.73
2018-12-27T04:49:34.357Z,4.17
2018-12-27T04:52:04.115Z,4.97
2018-12-27T04:54:33.932Z,4.40
2018-12-27T04:57:03.688Z,4.07
2018-12-27T04:59:33.543Z,7.10
2018-12-27T05:02:03.264Z,3.77
2018-12-27T05:04:32.821Z,3.83
2018-12-27T05:07:02.421Z,4.37
2018-12-27T05:09:32.204Z,2.53
2018-12-27T05:12:02.209Z,4.63
2018-12-27T05:14:31.810Z,5.85
2018-12-27T05:17:01.201Z,3.52
2018-12-27T05:19:30.950Z,5.60
2018-12-27T05:22:00.665Z,5.83
2018-12-27T05:24:30.442Z,5.78
2018-12-27T05:27:00.410Z,3.80
2018-12-27T05:29:30.172Z,6.35
2018-12-27T05:31:59.855Z,5.00
2018-12-27T05:34:29.575Z,4.42
2018-12-27T05:36:59.278Z,5.00
2018-12-27T05:39:29.194Z,4.20
2018-12-27T05:41:59.005Z,5.67
2018-12-27T05:44:28.872Z,6.70
2018-12-27T05:46:58.723Z,5.80
2018-12-27T05:49:28.499Z,4.42
2018-12-27T05:51:58.212Z,3.87
2018-12-27T05:54:28.014Z,4.63
2018-12-27T05:56:57.754Z,4.15
2018-12-27T05:59:27.512Z,3.10
2018-12-27T06:01:57.178Z,4.90
2018-12-27T06:04:33.525Z,3.37
2018-12-27T06:06:58.133Z,4.17
2018-12-27T06:09:27.829Z,4.35
2018-12-27T06:11:57.557Z,7.17
2018-12-27T06:14:27.353Z,1.75
2018-12-27T06:16:57.304Z,4.33
2018-12-27T06:19:27.109Z,4.17
2018-12-27T06:21:57.052Z,4.53
2018-12-27T06:24:26.690Z,3.10
2018-12-27T06:26:56.695Z,5.10
2018-12-27T06:29:26.477Z,3.60
2018-12-27T06:31:56.204Z,4.00
2018-12-27T06:34:25.776Z,3.00
2018-12-27T06:36:55.462Z,4.00
2018-12-27T06:39:25.745Z,3.63
2018-12-27T06:41:55.280Z,3.53
2018-12-27T06:44:25.131Z,5.30
2018-12-27T06:46:54.937Z,3.10
2018-12-27T06:49:24.543Z,4.03
2018-12-27T06:51:54.456Z,5.10
2018-12-27T06:54:24.055Z,4.40
2018-12-27T06:56:53.809Z,5.53
2018-12-27T06:59:23.571Z,5.10
2018-12-27T07:01:53.272Z,2.87
2018-12-27T07:04:22.909Z,4.57
2018-12-27T07:06:52.606Z,6.13
2018-12-27T07:09:22.306Z,3.50
2018-12-27T07:11:52.044Z,4.43
2018-12-27T07:14:21.838Z,3.10
2018-12-27T07:16:51.734Z,2.90
2018-12-27T07:19:21.582Z,3.20
2018-12-27T07:21:51.243Z,3.30
2018-12-27T07:24:21.057Z,4.37
2018-12-27T07:26:50.791Z,5.37
2018-12-27T07:29:20.521Z,2.70
2018-12-27T07:31:50.373Z,2.90
2018-12-27T07:34:19.956Z,3.75
2018-12-27T07:36:49.659Z,3.37
2018-12-27T07:39:19.106Z,4.55
2018-12-27T07:41:48.535Z,2.73
2018-12-27T07:44:18.508Z,2.92
2018-12-27T07:46:48.192Z,3.95
2018-12-27T07:49:17.922Z,4.60
2018-12-27T07:51:47.659Z,4.08
2018-12-27T07:54:17.385Z,5.03
2018-12-27T07:56:47.164Z,4.67
2018-12-27T07:59:17.102Z,6.62
2018-12-27T08:01:46.530Z,5.67
2018-12-27T08:04:16.066Z,5.08
2018-12-27T08:06:45.653Z,5.28
2018-12-27T08:09:15.541Z,3.77
2018-12-27T08:11:45.359Z,4.47
2018-12-27T08:14:15.299Z,3.30
2018-12-27T08:16:45.169Z,3.40
2018-12-27T08:19:14.963Z,4.50
2018-12-27T08:21:44.774Z,4.40
2018-12-27T08:24:14.569Z,3.90
2018-12-27T08:26:44.155Z,3.58
2018-12-27T08:29:13.827Z,3.90
2018-12-27T08:31:43.537Z,5.33
2018-12-27T08:34:13.254Z,3.57
2018-12-27T08:36:43.058Z,3.67
2018-12-27T08:39:12.841Z,3.75
2018-12-27T08:41:42.604Z,4.90
2018-12-27T08:44:12.114Z,4.43
2018-12-27T08:46:41.548Z,6.10
2018-12-27T08:49:11.046Z,4.90
2018-12-27T08:51:40.655Z,5.80
2018-12-27T08:54:10.154Z,5.50
2018-12-27T08:56:39.624Z,3.23
2018-12-27T08:59:09.113Z,4.20
2018-12-27T09:01:40.766Z,3.20
2018-12-27T09:04:10.374Z,2.43
2018-12-27T09:06:40.265Z,4.03
2018-12-27T09:09:09.905Z,3.67
2018-12-27T09:11:39.428Z,3.30
2018-12-27T09:14:08.925Z,3.13
2018-12-27T09:16:38.438Z,3.33
2018-12-27T09:19:07.836Z,4.20
2018-12-27T09:21:37.350Z,2.73
2018-12-27T09:24:06.804Z,4.20
2018-12-27T09:26:36.282Z,5.27
2018-12-27T09:29:05.794Z,5.47
2018-12-27T09:31:35.371Z,4.63
2018-12-27T09:34:04.876Z,4.67
2018-12-27T09:36:34.302Z,5.83
2018-12-27T09:39:04.871Z,5.67
2018-12-27T09:41:35.551Z,4.40
2018-12-27T09:44:04.971Z,4.60
2018-12-27T09:46:34.579Z,5.83
2018-12-27T09:49:04.138Z,4.37
2018-12-27T09:51:33.662Z,4.13
2018-12-27T09:54:03.196Z,4.90
2018-12-27T09:56:32.672Z,3.60
2018-12-27T09:59:02.024Z,4.30
2018-12-27T10:01:31.811Z,5.07
2018-12-27T10:04:01.331Z,5.63
2018-12-27T10:06:30.827Z,6.90
2018-12-27T10:09:00.472Z,6.90
2018-12-27T10:11:30.355Z,4.83
2018-12-27T10:13:59.743Z,6.40
2018-12-27T10:16:29.246Z,4.40
2018-12-27T10:18:58.684Z,6.17
2018-12-27T10:21:28.349Z,4.40
2018-12-27T10:23:57.794Z,5.40
2018-12-27T10:26:27.237Z,5.90
2018-12-27T10:28:56.709Z,5.03
2018-12-27T10:31:26.194Z,3.80
2018-12-27T10:33:55.638Z,6.43
2018-12-27T10:36:25.061Z,5.90
2018-12-27T10:38:57.788Z,6.80
2018-12-27T10:41:27.300Z,4.70
2018-12-27T10:43:56.746Z,6.67
2018-12-27T10:46:26.371Z,6.67
2018-12-27T10:48:55.826Z,7.37
2018-12-27T10:51:25.193Z,6.13
2018-12-27T10:53:54.827Z,7.83
2018-12-27T10:56:24.292Z,5.63
2018-12-27T10:58:53.848Z,4.27
2018-12-27T11:01:23.373Z,6.07
2018-12-27T11:03:52.841Z,6.13
2018-12-27T11:06:22.330Z,7.27
2018-12-27T11:08:51.907Z,6.07
2018-12-27T11:11:21.459Z,4.05
2018-12-27T11:13:51.027Z,9.95
2018-12-27T11:16:20.548Z,6.63
2018-12-27T11:18:50.073Z,7.63
2018-12-27T11:21:19.478Z,5.90
2018-12-27T11:23:49.099Z,6.30
2018-12-27T11:26:18.548Z,4.10
2018-12-27T11:28:48.138Z,4.37
2018-12-27T11:31:17.599Z,5.53
2018-12-27T11:33:47.232Z,5.90
2018-12-27T11:36:17.686Z,5.90
2018-12-27T11:38:47.127Z,5.47
2018-12-27T11:41:16.587Z,7.50
2018-12-27T11:43:46.382Z,6.07
2018-12-27T11:46:15.893Z,7.57
2018-12-27T11:48:45.353Z,7.40
2018-12-27T11:51:14.780Z,6.30
2018-12-27T11:53:44.312Z,8.87
2018-12-27T11:56:13.766Z,8.20
2018-12-27T11:58:43.229Z,8.20
2018-12-27T12:01:12.827Z,6.07
2018-12-27T12:03:42.279Z,7.83
2018-12-27T12:06:11.772Z,4.87
2018-12-27T12:08:41.139Z,7.33
2018-12-27T12:11:10.699Z,9.13
2018-12-27T12:13:40.309Z,7.07
2018-12-27T12:16:09.781Z,6.93
2018-12-27T12:18:39.317Z,7.07
2018-12-27T12:21:08.885Z,4.83
2018-12-27T12:23:38.290Z,5.83
2018-12-27T12:26:07.876Z,7.23
2018-12-27T12:28:37.355Z,6.20
2018-12-27T12:31:06.845Z,7.80
2018-12-27T12:33:36.341Z,5.90
2018-12-27T12:36:10.715Z,5.43
2018-12-27T12:38:36.964Z,6.20
2018-12-27T12:41:06.391Z,7.27
2018-12-27T12:43:35.830Z,5.43
2018-12-27T12:46:05.330Z,5.87
2018-12-27T12:48:34.803Z,6.90
2018-12-27T12:51:04.455Z,6.23
2018-12-27T12:53:33.851Z,6.00
2018-12-27T12:56:03.397Z,6.50
2018-12-27T12:58:32.810Z,7.03
2018-12-27T13:01:02.318Z,7.93
2018-12-27T13:03:31.764Z,10.08
2018-12-27T13:06:01.320Z,7.97
2018-12-27T13:08:30.766Z,6.13
2018-12-27T13:11:00.285Z,7.47
2018-12-27T13:13:29.799Z,3.90
2018-12-27T13:15:59.388Z,3.10
2018-12-27T13:18:28.880Z,4.73
2018-12-27T13:20:58.415Z,3.80
2018-12-27T13:23:27.825Z,8.17
2018-12-27T13:25:57.358Z,5.13
2018-12-27T13:28:28.481Z,5.60
2018-12-27T13:30:58.012Z,5.70
2018-12-27T13:33:27.526Z,5.90
2018-12-27T13:35:56.981Z,5.47
2018-12-27T13:38:26.547Z,6.43
2018-12-27T13:40:55.987Z,6.50
2018-12-27T13:43:25.556Z,5.70
2018-12-27T13:45:55.009Z,5.60
2018-12-27T13:48:24.511Z,5.10
2018-12-27T13:50:54.036Z,6.10
2018-12-27T13:53:23.413Z,4.93
2018-12-27T13:55:52.962Z,5.20
2018-12-27T13:58:22.339Z,4.43
2018-12-27T14:00:51.825Z,5.87
2018-12-27T14:03:21.299Z,6.50
2018-12-27T14:05:50.894Z,5.80
2018-12-27T14:08:20.454Z,8.70
2018-12-27T14:10:49.879Z,7.60
2018-12-27T14:13:19.384Z,7.33
2018-12-27T14:15:48.787Z,5.30
2018-12-27T14:18:18.349Z,4.47
2018-12-27T14:20:47.834Z,6.80
2018-12-27T14:23:17.259Z,6.67
2018-12-27T14:26:06.074Z,5.97
2018-12-27T14:28:35.913Z,7.00
2018-12-27T14:31:06.041Z,6.03
2018-12-27T14:33:35.833Z,5.50
2018-12-27T14:36:05.586Z,4.53
2018-12-27T14:38:35.506Z,5.60
2018-12-27T14:41:05.186Z,5.63
2018-12-27T14:43:34.829Z,5.63
2018-12-27T14:46:04.592Z,5.00
2018-12-27T14:48:34.452Z,6.30
2018-12-27T14:51:04.120Z,7.47
2018-12-27T14:53:34.347Z,8.47
2018-12-27T14:56:03.983Z,6.63
2018-12-27T14:58:33.629Z,5.90
2018-12-27T15:01:03.348Z,7.03
2018-12-27T15:03:33.367Z,6.40
2018-12-27T15:06:03.116Z,6.50
2018-12-27T15:08:32.916Z,7.77
2018-12-27T15:11:02.672Z,7.23
2018-12-27T15:13:32.466Z,8.53
2018-12-27T15:16:02.148Z,7.23
2018-12-27T15:18:32.122Z,8.30
2018-12-27T15:21:01.970Z,6.57
2018-12-27T15:23:31.679Z,5.20
2018-12-27T15:26:01.345Z,6.07
2018-12-27T15:28:31.142Z,7.03
2018-12-27T15:31:00.971Z,6.90
2018-12-27T15:33:30.787Z,7.17
2018-12-27T15:36:00.618Z,8.13
2018-12-27T15:38:30.358Z,8.33
2018-12-27T15:41:00.049Z,6.80
2018-12-27T15:43:29.879Z,5.60
2018-12-27T15:45:59.745Z,6.60
2018-12-27T15:48:29.517Z,4.50
2018-12-27T15:50:59.239Z,6.13
2018-12-27T15:53:28.848Z,6.00
2018-12-27T15:55:58.614Z,5.27
2018-12-27T15:58:28.275Z,5.87
2018-12-27T16:00:57.948Z,6.30
2018-12-27T16:03:27.572Z,5.47
2018-12-27T16:05:57.555Z,6.20
2018-12-27T16:08:27.217Z,5.70
2018-12-27T16:10:56.966Z,8.10
2018-12-27T16:13:26.883Z,5.83
2018-12-27T16:15:56.580Z,5.83
2018-12-27T16:18:26.545Z,6.30
2018-12-27T16:20:56.203Z,7.17
2018-12-27T16:23:26.025Z,8.37
2018-12-27T16:25:56.020Z,7.90
2018-12-27T16:28:26.015Z,9.70
2018-12-27T16:30:56.458Z,7.00
2018-12-27T16:33:26.331Z,6.10
2018-12-27T16:35:56.568Z,8.07
2018-12-27T16:38:26.343Z,9.50
2018-12-27T16:40:56.128Z,7.03
2018-12-27T16:43:26.335Z,8.57
2018-12-27T16:45:56.116Z,9.00
2018-12-27T16:48:27.260Z,8.20
2018-12-27T16:50:57.106Z,7.73
2018-12-27T16:53:27.597Z,8.80
2018-12-27T16:55:57.361Z,8.80
2018-12-27T16:58:27.007Z,7.50
2018-12-27T17:00:57.007Z,6.93
2018-12-27T17:03:27.645Z,8.60
2018-12-27T17:06:01.328Z,8.70
2018-12-27T17:08:31.635Z,6.67
2018-12-27T17:11:01.402Z,7.13
2018-12-27T17:13:31.566Z,7.50
2018-12-27T17:16:01.436Z,8.40
2018-12-27T17:18:31.148Z,6.40
2018-12-27T17:21:01.375Z,6.87
2018-12-27T17:23:32.533Z,9.20
2018-12-27T17:26:02.081Z,8.83
2018-12-27T17:28:31.809Z,8.80
2018-12-27T17:31:01.720Z,6.27
2018-12-27T17:33:31.575Z,7.90
2018-12-27T17:36:01.109Z,9.30
2018-12-27T17:38:31.902Z,8.90
2018-12-27T17:41:01.809Z,7.23
2018-12-27T17:43:31.469Z,6.83
2018-12-27T17:46:01.114Z,5.70
2018-12-27T17:48:32.536Z,7.00
2018-12-27T17:51:02.107Z,6.70
2018-12-27T17:53:32.064Z,8.33
2018-12-27T17:56:01.859Z,6.67
2018-12-27T17:58:31.730Z,7.07
2018-12-27T18:01:01.646Z,8.10
2018-12-27T18:03:31.580Z,9.30
2018-12-27T18:06:01.289Z,9.90
2018-12-27T18:08:30.951Z,8.33
2018-12-27T18:11:00.637Z,8.37
2018-12-27T18:13:30.577Z,7.80
2018-12-27T18:16:00.375Z,7.47
2018-12-27T18:18:30.183Z,11.20
2018-12-27T18:21:00.025Z,9.07
2018-12-27T18:23:29.749Z,10.13
2018-12-27T18:25:59.503Z,9.17
2018-12-27T18:28:29.307Z,9.10
2018-12-27T18:30:58.988Z,8.83
2018-12-27T18:33:30.742Z,6.40
2018-12-27T18:36:02.488Z,9.57
2018-12-27T18:38:32.519Z,8.57
2018-12-27T18:41:04.051Z,7.23
2018-12-27T18:43:33.858Z,8.80
2018-12-27T18:46:03.898Z,9.27
2018-12-27T18:48:34.652Z,10.50
2018-12-27T18:51:05.935Z,9.40
2018-12-27T18:53:35.606Z,10.37
2018-12-27T18:56:05.364Z,7.97
2018-12-27T18:58:35.105Z,8.80
2018-12-27T19:01:05.165Z,7.70
2018-12-27T19:03:34.927Z,9.73
2018-12-27T19:06:04.638Z,9.10
2018-12-27T19:08:34.661Z,9.57
2018-12-27T19:11:40.116Z,8.30
2018-12-27T19:14:10.051Z,7.30
2018-12-27T19:16:39.825Z,6.77
2018-12-27T19:19:09.609Z,9.60
2018-12-27T19:22:14.482Z,9.10
2018-12-27T19:24:44.249Z,6.30
2018-12-27T19:27:14.034Z,10.90
2018-12-27T19:29:43.810Z,9.80
2018-12-27T19:32:13.614Z,8.70
2018-12-27T19:34:43.388Z,10.43
2018-12-27T19:37:13.103Z,9.90
2018-12-27T19:39:42.913Z,10.90
2018-12-27T19:42:12.591Z,7.63
2018-12-27T19:44:42.427Z,7.13
2018-12-27T19:47:12.126Z,9.10
2018-12-27T19:49:41.739Z,8.57
2018-12-27T19:52:11.408Z,10.70
2018-12-27T19:54:41.108Z,7.23
2018-12-27T19:57:11.071Z,10.83
2018-12-27T19:59:41.000Z,11.10
2018-12-27T20:02:11.131Z,8.80
2018-12-27T20:04:40.869Z,9.77
2018-12-27T20:07:10.544Z,8.93
2018-12-27T20:09:40.346Z,10.53
2018-12-27T20:12:09.882Z,10.70
2018-12-27T20:14:39.578Z,9.43
2018-12-27T20:17:10.286Z,8.77
2018-12-27T20:19:40.059Z,8.83
2018-12-27T20:22:09.840Z,9.07
2018-12-27T20:24:39.633Z,9.00
2018-12-27T20:27:09.367Z,9.17
2018-12-27T20:29:39.243Z,7.93
2018-12-27T20:32:08.789Z,12.10
2018-12-27T20:34:38.649Z,10.00
2018-12-27T20:37:08.386Z,9.60
2018-12-27T20:39:37.965Z,10.80
2018-12-27T20:42:07.672Z,9.80
2018-12-27T20:44:37.464Z,9.17
2018-12-27T20:47:07.077Z,9.17
2018-12-27T20:49:36.970Z,9.20
2018-12-27T20:52:06.941Z,10.67
2018-12-27T20:54:38.686Z,9.20
2018-12-27T20:57:08.378Z,10.70
2018-12-27T20:59:38.074Z,7.63
2018-12-27T21:02:07.938Z,7.57
2018-12-27T21:04:40.472Z,10.03
2018-12-27T21:07:10.318Z,11.33
2018-12-27T21:09:40.120Z,11.30
2018-12-27T21:12:09.768Z,9.40
2018-12-27T21:14:39.633Z,9.97
2018-12-27T21:17:09.247Z,9.70
2018-12-27T21:19:38.963Z,9.73
2018-12-27T21:22:08.885Z,10.43
2018-12-27T21:24:38.727Z,7.83
2018-12-27T21:27:08.479Z,7.60
2018-12-27T21:29:38.001Z,9.67
2018-12-27T21:32:08.247Z,9.97
2018-12-27T21:34:38.064Z,9.70
2018-12-27T21:37:07.683Z,8.73
2018-12-27T21:39:37.637Z,8.93
2018-12-27T21:42:07.691Z,9.20
2018-12-27T21:44:37.422Z,8.53
2018-12-27T21:47:07.174Z,9.33
2018-12-27T21:49:42.047Z,8.90
2018-12-27T21:52:11.898Z,7.10
2018-12-27T21:54:41.690Z,8.00
2018-12-27T21:57:11.529Z,8.50
2018-12-27T21:59:41.356Z,9.73
2018-12-27T22:02:11.207Z,8.70
2018-12-27T22:04:40.880Z,8.00
2018-12-27T22:07:10.626Z,7.40
2018-12-27T22:09:40.242Z,5.57
2018-12-27T22:12:09.973Z,8.27
2018-12-27T22:14:39.563Z,8.10
2018-12-27T22:17:09.535Z,7.40
2018-12-27T22:19:39.620Z,7.00
2018-12-27T22:22:09.399Z,8.27
2018-12-27T22:24:39.114Z,5.73
2018-12-27T22:27:09.445Z,8.33
2018-12-27T22:29:39.388Z,8.70
2018-12-27T22:32:09.236Z,8.90
2018-12-27T22:34:38.922Z,8.80
2018-12-27T22:37:08.562Z,7.80
2018-12-27T22:39:38.634Z,10.30
2018-12-27T22:42:08.294Z,9.50
2018-12-27T22:44:37.927Z,10.60
2018-12-27T22:47:09.196Z,8.97
2018-12-27T22:49:39.118Z,9.30
2018-12-27T22:52:09.056Z,9.00
2018-12-27T22:54:39.042Z,9.00
2018-12-27T22:57:08.714Z,5.57
2018-12-27T22:59:38.673Z,9.40
2018-12-27T23:02:08.871Z,6.40
2018-12-27T23:04:38.506Z,8.47
2018-12-27T23:07:08.167Z,7.37
2018-12-27T23:09:37.815Z,8.80
2018-12-27T23:12:07.548Z,6.93
2018-12-27T23:14:37.417Z,7.20
2018-12-27T23:17:07.181Z,8.77
2018-12-27T23:19:36.867Z,8.00
2018-12-27T23:22:06.712Z,9.90
2018-12-27T23:24:36.439Z,9.50
2018-12-27T23:27:06.299Z,6.97
2018-12-27T23:29:35.932Z,7.87
2018-12-27T23:32:05.695Z,7.20
2018-12-27T23:34:35.507Z,11.27
2018-12-27T23:37:05.245Z,8.70
2018-12-27T23:39:34.878Z,7.43
2018-12-27T23:42:04.628Z,9.53
2018-12-27T23:44:34.096Z,11.40
2018-12-27T23:47:03.812Z,8.03
2018-12-27T23:49:33.588Z,8.63
2018-12-27T23:52:03.450Z,6.03
2018-12-27T23:54:33.181Z,9.50
2018-12-27T23:57:03.267Z,8.87
2018-12-27T23:59:33.067Z,8.13
